sensor_id;sensor_type;location;lat;lon;timestamp;temperature;humidity
49579;DHT22;35483;50.828;3.228;2022-10-16T00:00:56;14.90;97.90
49579;DHT22;35483;50.828;3.228;2022-10-16T00:03:22;14.80;97.80
49579;DHT22;35483;50.828;3.228;2022-10-16T00:05:48;14.80;97.90
49579;DHT22;35483;50.828;3.228;2022-10-16T00:08:14;14.80;98.10
49579;DHT22;35483;50.828;3.228;2022-10-16T00:10:40;14.80;98.00
49579;DHT22;35483;50.828;3.228;2022-10-16T00:13:07;14.80;98.00
49579;DHT22;35483;50.828;3.228;2022-10-16T00:15:34;14.70;98.30
49579;DHT22;35483;50.828;3.228;2022-10-16T00:18:03;14.70;98.20
49579;DHT22;35483;50.828;3.228;2022-10-16T00:20:29;14.70;98.10
49579;DHT22;35483;50.828;3.228;2022-10-16T00:22:56;14.70;98.10
49579;DHT22;35483;50.828;3.228;2022-10-16T00:25:22;14.70;98.20
49579;DHT22;35483;50.828;3.228;2022-10-16T00:27:48;14.70;98.20
49579;DHT22;35483;50.828;3.228;2022-10-16T00:30:14;14.70;98.20
49579;DHT22;35483;50.828;3.228;2022-10-16T00:32:39;14.70;98.30
49579;DHT22;35483;50.828;3.228;2022-10-16T00:35:05;14.70;98.30
49579;DHT22;35483;50.828;3.228;2022-10-16T00:37:31;14.70;98.40
49579;DHT22;35483;50.828;3.228;2022-10-16T00:39:57;14.70;98.30
49579;DHT22;35483;50.828;3.228;2022-10-16T00:42:23;14.70;98.30
49579;DHT22;35483;50.828;3.228;2022-10-16T00:44:54;14.70;98.40
49579;DHT22;35483;50.828;3.228;2022-10-16T00:47:36;14.70;98.70
49579;DHT22;35483;50.828;3.228;2022-10-16T00:50:16;14.60;98.60
49579;DHT22;35483;50.828;3.228;2022-10-16T00:52:46;14.60;98.50
49579;DHT22;35483;50.828;3.228;2022-10-16T00:55:12;14.60;98.70
49579;DHT22;35483;50.828;3.228;2022-10-16T00:57:39;14.60;98.50
49579;DHT22;35483;50.828;3.228;2022-10-16T01:00:09;14.60;98.60
49579;DHT22;35483;50.828;3.228;2022-10-16T01:02:35;14.60;98.50
49579;DHT22;35483;50.828;3.228;2022-10-16T01:05:02;14.60;98.50
49579;DHT22;35483;50.828;3.228;2022-10-16T01:15:29;14.60;99.10
49579;DHT22;35483;50.828;3.228;2022-10-16T01:20:33;14.60;98.90
49579;DHT22;35483;50.828;3.228;2022-10-16T01:26:09;14.60;99.00
49579;DHT22;35483;50.828;3.228;2022-10-16T01:28:45;14.60;99.60
49579;DHT22;35483;50.828;3.228;2022-10-16T01:31:15;14.50;98.80
49579;DHT22;35483;50.828;3.228;2022-10-16T01:33:47;14.60;98.80
49579;DHT22;35483;50.828;3.228;2022-10-16T01:36:24;14.50;99.00
49579;DHT22;35483;50.828;3.228;2022-10-16T01:38:54;14.50;99.00
49579;DHT22;35483;50.828;3.228;2022-10-16T01:41:32;14.50;99.00
49579;DHT22;35483;50.828;3.228;2022-10-16T01:44:07;14.50;99.50
49579;DHT22;35483;50.828;3.228;2022-10-16T01:46:38;14.50;99.30
49579;DHT22;35483;50.828;3.228;2022-10-16T01:49:06;14.50;99.10
49579;DHT22;35483;50.828;3.228;2022-10-16T01:51:35;14.40;99.10
49579;DHT22;35483;50.828;3.228;2022-10-16T01:54:02;14.50;99.00
49579;DHT22;35483;50.828;3.228;2022-10-16T01:56:29;14.50;99.10
49579;DHT22;35483;50.828;3.228;2022-10-16T01:59:00;14.40;99.10
49579;DHT22;35483;50.828;3.228;2022-10-16T02:01:29;14.40;99.10
49579;DHT22;35483;50.828;3.228;2022-10-16T02:03:58;14.40;99.50
49579;DHT22;35483;50.828;3.228;2022-10-16T02:06:25;14.40;99.20
49579;DHT22;35483;50.828;3.228;2022-10-16T02:08:51;14.40;99.10
49579;DHT22;35483;50.828;3.228;2022-10-16T02:11:16;14.40;99.10
49579;DHT22;35483;50.828;3.228;2022-10-16T02:13:50;14.40;99.10
49579;DHT22;35483;50.828;3.228;2022-10-16T02:16:16;14.40;99.40
49579;DHT22;35483;50.828;3.228;2022-10-16T02:18:43;14.40;99.10
49579;DHT22;35483;50.828;3.228;2022-10-16T02:26:57;14.40;99.70
49579;DHT22;35483;50.828;3.228;2022-10-16T02:29:27;14.40;99.20
49579;DHT22;35483;50.828;3.228;2022-10-16T02:31:59;14.40;99.20
49579;DHT22;35483;50.828;3.228;2022-10-16T02:34:28;14.40;99.40
49579;DHT22;35483;50.828;3.228;2022-10-16T02:36:56;14.40;99.10
49579;DHT22;35483;50.828;3.228;2022-10-16T02:39:23;14.40;99.00
49579;DHT22;35483;50.828;3.228;2022-10-16T02:41:49;14.40;99.30
49579;DHT22;35483;50.828;3.228;2022-10-16T02:44:15;14.40;99.20
49579;DHT22;35483;50.828;3.228;2022-10-16T02:46:40;14.30;99.30
49579;DHT22;35483;50.828;3.228;2022-10-16T02:49:06;14.30;99.20
49579;DHT22;35483;50.828;3.228;2022-10-16T02:51:32;14.40;99.10
49579;DHT22;35483;50.828;3.228;2022-10-16T02:53:57;14.40;99.10
49579;DHT22;35483;50.828;3.228;2022-10-16T02:56:23;14.40;99.20
49579;DHT22;35483;50.828;3.228;2022-10-16T02:58:49;14.30;99.40
49579;DHT22;35483;50.828;3.228;2022-10-16T03:01:14;14.30;99.20
49579;DHT22;35483;50.828;3.228;2022-10-16T03:03:42;14.30;99.30
49579;DHT22;35483;50.828;3.228;2022-10-16T03:06:08;14.30;99.20
49579;DHT22;35483;50.828;3.228;2022-10-16T03:08:33;14.30;99.40
49579;DHT22;35483;50.828;3.228;2022-10-16T03:10:59;14.30;99.40
49579;DHT22;35483;50.828;3.228;2022-10-16T03:13:25;14.30;99.30
49579;DHT22;35483;50.828;3.228;2022-10-16T03:15:50;14.30;99.20
49579;DHT22;35483;50.828;3.228;2022-10-16T03:18:16;14.30;99.40
49579;DHT22;35483;50.828;3.228;2022-10-16T03:20:45;14.30;99.30
49579;DHT22;35483;50.828;3.228;2022-10-16T03:23:11;14.30;99.50
49579;DHT22;35483;50.828;3.228;2022-10-16T03:25:36;14.30;99.20
49579;DHT22;35483;50.828;3.228;2022-10-16T03:28:02;14.30;99.20
49579;DHT22;35483;50.828;3.228;2022-10-16T03:30:28;14.30;99.30
49579;DHT22;35483;50.828;3.228;2022-10-16T03:32:54;14.30;99.30
49579;DHT22;35483;50.828;3.228;2022-10-16T03:35:21;14.20;99.30
49579;DHT22;35483;50.828;3.228;2022-10-16T03:37:47;14.20;99.40
49579;DHT22;35483;50.828;3.228;2022-10-16T03:40:13;14.20;99.30
49579;DHT22;35483;50.828;3.228;2022-10-16T03:42:39;14.20;99.40
49579;DHT22;35483;50.828;3.228;2022-10-16T03:45:05;14.10;99.40
49579;DHT22;35483;50.828;3.228;2022-10-16T03:47:31;14.10;99.50
49579;DHT22;35483;50.828;3.228;2022-10-16T03:49:59;14.10;99.60
49579;DHT22;35483;50.828;3.228;2022-10-16T03:52:25;14.00;99.60
49579;DHT22;35483;50.828;3.228;2022-10-16T03:54:51;14.00;99.90
49579;DHT22;35483;50.828;3.228;2022-10-16T03:57:16;14.00;99.70
49579;DHT22;35483;50.828;3.228;2022-10-16T03:59:42;14.00;99.60
49579;DHT22;35483;50.828;3.228;2022-10-16T04:02:08;14.00;99.60
49579;DHT22;35483;50.828;3.228;2022-10-16T04:04:33;13.90;99.70
49579;DHT22;35483;50.828;3.228;2022-10-16T04:06:59;13.90;99.70
49579;DHT22;35483;50.828;3.228;2022-10-16T04:09:25;13.90;99.50
49579;DHT22;35483;50.828;3.228;2022-10-16T04:11:51;13.90;99.50
49579;DHT22;35483;50.828;3.228;2022-10-16T04:14:16;13.90;99.90
49579;DHT22;35483;50.828;3.228;2022-10-16T04:16:42;13.90;99.80
49579;DHT22;35483;50.828;3.228;2022-10-16T04:19:09;13.90;99.80
49579;DHT22;35483;50.828;3.228;2022-10-16T04:21:35;13.90;99.90
49579;DHT22;35483;50.828;3.228;2022-10-16T04:24:00;13.90;99.90
49579;DHT22;35483;50.828;3.228;2022-10-16T04:26:26;13.80;99.90
49579;DHT22;35483;50.828;3.228;2022-10-16T04:28:51;13.80;99.90
49579;DHT22;35483;50.828;3.228;2022-10-16T04:31:17;13.80;99.90
49579;DHT22;35483;50.828;3.228;2022-10-16T04:33:43;13.80;99.90
49579;DHT22;35483;50.828;3.228;2022-10-16T04:36:10;13.80;99.90
49579;DHT22;35483;50.828;3.228;2022-10-16T04:38:36;13.80;99.90
49579;DHT22;35483;50.828;3.228;2022-10-16T04:41:03;13.80;99.90
49579;DHT22;35483;50.828;3.228;2022-10-16T04:43:29;13.80;99.90
49579;DHT22;35483;50.828;3.228;2022-10-16T04:45:55;13.80;99.90
49579;DHT22;35483;50.828;3.228;2022-10-16T04:48:22;13.80;99.90
49579;DHT22;35483;50.828;3.228;2022-10-16T04:50:48;13.80;99.90
49579;DHT22;35483;50.828;3.228;2022-10-16T04:53:13;13.90;99.90
49579;DHT22;35483;50.828;3.228;2022-10-16T04:55:40;14.00;99.80
49579;DHT22;35483;50.828;3.228;2022-10-16T04:58:06;14.10;99.90
49579;DHT22;35483;50.828;3.228;2022-10-16T05:00:32;14.20;99.70
49579;DHT22;35483;50.828;3.228;2022-10-16T05:02:58;14.30;99.50
49579;DHT22;35483;50.828;3.228;2022-10-16T05:05:26;14.30;99.40
49579;DHT22;35483;50.828;3.228;2022-10-16T05:07:52;14.40;99.40
49579;DHT22;35483;50.828;3.228;2022-10-16T05:10:18;14.50;99.40
49579;DHT22;35483;50.828;3.228;2022-10-16T05:12:45;14.60;99.20
49579;DHT22;35483;50.828;3.228;2022-10-16T05:15:12;14.60;99.30
49579;DHT22;35483;50.828;3.228;2022-10-16T05:17:37;14.60;99.20
49579;DHT22;35483;50.828;3.228;2022-10-16T05:20:04;14.60;99.10
49579;DHT22;35483;50.828;3.228;2022-10-16T05:22:30;14.60;99.20
49579;DHT22;35483;50.828;3.228;2022-10-16T05:24:55;14.50;99.30
49579;DHT22;35483;50.828;3.228;2022-10-16T05:27:21;14.50;99.30
49579;DHT22;35483;50.828;3.228;2022-10-16T05:29:48;14.50;99.30
49579;DHT22;35483;50.828;3.228;2022-10-16T05:32:16;14.50;99.30
49579;DHT22;35483;50.828;3.228;2022-10-16T05:34:42;14.50;99.30
49579;DHT22;35483;50.828;3.228;2022-10-16T05:37:08;14.40;99.40
49579;DHT22;35483;50.828;3.228;2022-10-16T05:39:34;14.40;99.30
49579;DHT22;35483;50.828;3.228;2022-10-16T05:42:02;14.40;99.40
49579;DHT22;35483;50.828;3.228;2022-10-16T05:44:28;14.40;99.30
49579;DHT22;35483;50.828;3.228;2022-10-16T05:46:53;14.40;99.50
49579;DHT22;35483;50.828;3.228;2022-10-16T05:49:19;14.30;99.50
49579;DHT22;35483;50.828;3.228;2022-10-16T05:51:45;14.30;99.40
49579;DHT22;35483;50.828;3.228;2022-10-16T05:54:10;14.20;99.60
49579;DHT22;35483;50.828;3.228;2022-10-16T05:56:36;14.20;99.50
49579;DHT22;35483;50.828;3.228;2022-10-16T05:59:03;14.10;99.60
49579;DHT22;35483;50.828;3.228;2022-10-16T06:01:29;14.00;99.80
49579;DHT22;35483;50.828;3.228;2022-10-16T06:03:57;14.10;99.70
49579;DHT22;35483;50.828;3.228;2022-10-16T06:06:26;14.00;99.80
49579;DHT22;35483;50.828;3.228;2022-10-16T06:08:53;14.00;99.80
49579;DHT22;35483;50.828;3.228;2022-10-16T06:11:21;14.00;99.70
49579;DHT22;35483;50.828;3.228;2022-10-16T06:13:52;14.00;99.90
49579;DHT22;35483;50.828;3.228;2022-10-16T06:16:18;13.90;99.90
49579;DHT22;35483;50.828;3.228;2022-10-16T06:18:44;13.90;99.80
49579;DHT22;35483;50.828;3.228;2022-10-16T06:21:14;13.80;99.90
49579;DHT22;35483;50.828;3.228;2022-10-16T06:23:41;13.80;99.80
49579;DHT22;35483;50.828;3.228;2022-10-16T06:26:12;13.80;99.80
49579;DHT22;35483;50.828;3.228;2022-10-16T06:28:39;13.90;99.90
49579;DHT22;35483;50.828;3.228;2022-10-16T06:31:06;13.80;99.70
49579;DHT22;35483;50.828;3.228;2022-10-16T06:33:32;13.90;99.80
49579;DHT22;35483;50.828;3.228;2022-10-16T06:36:06;13.80;99.90
49579;DHT22;35483;50.828;3.228;2022-10-16T06:38:32;13.80;99.90
49579;DHT22;35483;50.828;3.228;2022-10-16T06:40:58;13.80;99.90
49579;DHT22;35483;50.828;3.228;2022-10-16T06:43:24;13.90;99.90
49579;DHT22;35483;50.828;3.228;2022-10-16T06:45:54;13.80;99.90
49579;DHT22;35483;50.828;3.228;2022-10-16T06:48:21;13.90;99.90
49579;DHT22;35483;50.828;3.228;2022-10-16T06:51:10;13.90;99.80
49579;DHT22;35483;50.828;3.228;2022-10-16T06:53:38;13.90;99.80
49579;DHT22;35483;50.828;3.228;2022-10-16T06:56:13;13.90;99.80
49579;DHT22;35483;50.828;3.228;2022-10-16T06:58:39;13.90;99.80
49579;DHT22;35483;50.828;3.228;2022-10-16T07:01:05;13.90;99.70
49579;DHT22;35483;50.828;3.228;2022-10-16T07:03:31;14.00;99.80
49579;DHT22;35483;50.828;3.228;2022-10-16T07:06:02;14.00;99.60
49579;DHT22;35483;50.828;3.228;2022-10-16T07:08:34;14.10;99.70
49579;DHT22;35483;50.828;3.228;2022-10-16T07:11:05;14.10;99.60
49579;DHT22;35483;50.828;3.228;2022-10-16T07:13:35;14.10;99.60
49579;DHT22;35483;50.828;3.228;2022-10-16T07:16:16;14.20;99.80
49579;DHT22;35483;50.828;3.228;2022-10-16T07:18:43;14.20;99.80
49579;DHT22;35483;50.828;3.228;2022-10-16T07:21:16;14.20;99.60
49579;DHT22;35483;50.828;3.228;2022-10-16T07:23:42;14.30;99.80
49579;DHT22;35483;50.828;3.228;2022-10-16T07:26:08;14.30;99.60
49579;DHT22;35483;50.828;3.228;2022-10-16T07:28:35;14.30;99.60
49579;DHT22;35483;50.828;3.228;2022-10-16T07:31:02;14.40;99.60
49579;DHT22;35483;50.828;3.228;2022-10-16T07:33:28;14.40;99.60
49579;DHT22;35483;50.828;3.228;2022-10-16T07:35:55;14.50;99.60
49579;DHT22;35483;50.828;3.228;2022-10-16T07:38:21;14.60;99.50
49579;DHT22;35483;50.828;3.228;2022-10-16T07:40:47;14.70;99.40
49579;DHT22;35483;50.828;3.228;2022-10-16T07:43:14;14.70;99.40
49579;DHT22;35483;50.828;3.228;2022-10-16T07:45:49;14.80;99.40
49579;DHT22;35483;50.828;3.228;2022-10-16T07:48:17;14.80;99.50
49579;DHT22;35483;50.828;3.228;2022-10-16T07:50:43;14.90;99.40
49579;DHT22;35483;50.828;3.228;2022-10-16T07:53:10;14.90;99.30
49579;DHT22;35483;50.828;3.228;2022-10-16T07:55:36;15.00;99.20
49579;DHT22;35483;50.828;3.228;2022-10-16T07:58:02;15.10;99.20
49579;DHT22;35483;50.828;3.228;2022-10-16T08:00:28;15.20;99.20
49579;DHT22;35483;50.828;3.228;2022-10-16T08:02:54;15.20;99.20
49579;DHT22;35483;50.828;3.228;2022-10-16T08:05:20;15.30;99.10
49579;DHT22;35483;50.828;3.228;2022-10-16T08:07:49;15.40;99.00
49579;DHT22;35483;50.828;3.228;2022-10-16T08:10:19;15.50;99.00
49579;DHT22;35483;50.828;3.228;2022-10-16T08:12:46;15.50;99.00
49579;DHT22;35483;50.828;3.228;2022-10-16T08:15:12;15.40;99.10
49579;DHT22;35483;50.828;3.228;2022-10-16T08:17:38;15.30;99.10
49579;DHT22;35483;50.828;3.228;2022-10-16T08:20:04;15.30;99.20
49579;DHT22;35483;50.828;3.228;2022-10-16T08:22:30;15.20;99.20
49579;DHT22;35483;50.828;3.228;2022-10-16T08:24:56;15.20;99.30
49579;DHT22;35483;50.828;3.228;2022-10-16T08:27:22;15.20;99.30
49579;DHT22;35483;50.828;3.228;2022-10-16T08:29:51;15.20;99.30
49579;DHT22;35483;50.828;3.228;2022-10-16T08:32:16;15.20;99.30
49579;DHT22;35483;50.828;3.228;2022-10-16T08:34:42;15.20;99.30
49579;DHT22;35483;50.828;3.228;2022-10-16T08:37:08;15.20;99.30
49579;DHT22;35483;50.828;3.228;2022-10-16T08:39:37;15.30;99.30
49579;DHT22;35483;50.828;3.228;2022-10-16T08:42:18;15.30;99.30
49579;DHT22;35483;50.828;3.228;2022-10-16T08:45:12;15.30;99.30
49579;DHT22;35483;50.828;3.228;2022-10-16T08:51:02;15.40;99.30
49579;DHT22;35483;50.828;3.228;2022-10-16T08:53:44;15.40;99.30
49579;DHT22;35483;50.828;3.228;2022-10-16T08:56:13;15.40;99.50
49579;DHT22;35483;50.828;3.228;2022-10-16T08:58:39;15.50;99.30
49579;DHT22;35483;50.828;3.228;2022-10-16T09:01:12;15.50;99.20
49579;DHT22;35483;50.828;3.228;2022-10-16T09:16:51;15.80;99.10
49579;DHT22;35483;50.828;3.228;2022-10-16T09:19:46;15.80;99.20
49579;DHT22;35483;50.828;3.228;2022-10-16T09:22:16;15.90;99.00
49579;DHT22;35483;50.828;3.228;2022-10-16T09:24:43;15.90;99.20
49579;DHT22;35483;50.828;3.228;2022-10-16T09:27:14;15.90;99.20
49579;DHT22;35483;50.828;3.228;2022-10-16T09:29:40;16.00;99.10
49579;DHT22;35483;50.828;3.228;2022-10-16T09:32:18;16.10;99.10
49579;DHT22;35483;50.828;3.228;2022-10-16T09:34:50;16.10;99.10
49579;DHT22;35483;50.828;3.228;2022-10-16T09:37:20;16.10;99.10
49579;DHT22;35483;50.828;3.228;2022-10-16T09:39:53;16.20;99.20
49579;DHT22;35483;50.828;3.228;2022-10-16T09:42:35;16.20;99.00
49579;DHT22;35483;50.828;3.228;2022-10-16T09:45:03;16.30;98.90
49579;DHT22;35483;50.828;3.228;2022-10-16T09:47:30;16.30;99.00
49579;DHT22;35483;50.828;3.228;2022-10-16T09:50:05;16.30;99.00
49579;DHT22;35483;50.828;3.228;2022-10-16T09:52:41;16.40;99.00
49579;DHT22;35483;50.828;3.228;2022-10-16T09:55:17;16.40;98.90
49579;DHT22;35483;50.828;3.228;2022-10-16T09:57:53;16.40;98.90
49579;DHT22;35483;50.828;3.228;2022-10-16T10:00:20;16.50;98.90
49579;DHT22;35483;50.828;3.228;2022-10-16T10:02:47;16.50;98.90
49579;DHT22;35483;50.828;3.228;2022-10-16T10:05:27;16.60;98.90
49579;DHT22;35483;50.828;3.228;2022-10-16T10:08:01;16.60;98.70
49579;DHT22;35483;50.828;3.228;2022-10-16T10:10:34;16.60;98.70
49579;DHT22;35483;50.828;3.228;2022-10-16T10:13:02;16.70;98.90
49579;DHT22;35483;50.828;3.228;2022-10-16T10:15:33;16.70;98.80
49579;DHT22;35483;50.828;3.228;2022-10-16T10:18:00;16.70;98.80
49579;DHT22;35483;50.828;3.228;2022-10-16T10:20:34;16.80;98.80
49579;DHT22;35483;50.828;3.228;2022-10-16T10:23:01;16.80;98.70
49579;DHT22;35483;50.828;3.228;2022-10-16T10:28:21;16.90;98.60
49579;DHT22;35483;50.828;3.228;2022-10-16T10:34:17;17.00;98.50
49579;DHT22;35483;50.828;3.228;2022-10-16T10:36:53;17.10;98.20
49579;DHT22;35483;50.828;3.228;2022-10-16T10:39:57;17.20;98.60
49579;DHT22;35483;50.828;3.228;2022-10-16T10:45:18;17.20;98.60
49579;DHT22;35483;50.828;3.228;2022-10-16T10:50:55;17.40;97.30
49579;DHT22;35483;50.828;3.228;2022-10-16T10:53:36;17.50;97.80
49579;DHT22;35483;50.828;3.228;2022-10-16T10:59:04;17.60;97.70
49579;DHT22;35483;50.828;3.228;2022-10-16T11:01:39;17.60;96.90
49579;DHT22;35483;50.828;3.228;2022-10-16T11:04:35;17.70;98.10
49579;DHT22;35483;50.828;3.228;2022-10-16T11:07:17;17.70;97.10
49579;DHT22;35483;50.828;3.228;2022-10-16T11:09:53;17.80;97.60
49579;DHT22;35483;50.828;3.228;2022-10-16T11:12:24;17.90;97.50
49579;DHT22;35483;50.828;3.228;2022-10-16T11:17:42;17.90;97.40
49579;DHT22;35483;50.828;3.228;2022-10-16T11:20:24;17.90;97.50
49579;DHT22;35483;50.828;3.228;2022-10-16T11:22:55;17.90;97.00
49579;DHT22;35483;50.828;3.228;2022-10-16T11:25:29;17.90;97.00
49579;DHT22;35483;50.828;3.228;2022-10-16T11:28:42;17.90;97.40
49579;DHT22;35483;50.828;3.228;2022-10-16T11:30:51;18.00;97.10
49579;DHT22;35483;50.828;3.228;2022-10-16T11:33:30;18.00;97.20
49579;DHT22;35483;50.828;3.228;2022-10-16T11:36:22;18.20;96.90
49579;DHT22;35483;50.828;3.228;2022-10-16T11:41:35;18.40;96.90
49579;DHT22;35483;50.828;3.228;2022-10-16T11:47:42;18.70;93.50
49579;DHT22;35483;50.828;3.228;2022-10-16T11:50:22;18.80;95.10
49579;DHT22;35483;50.828;3.228;2022-10-16T11:55:45;19.00;94.40
49579;DHT22;35483;50.828;3.228;2022-10-16T12:01:18;18.90;94.60
49579;DHT22;35483;50.828;3.228;2022-10-16T12:06:44;18.80;94.10
49579;DHT22;35483;50.828;3.228;2022-10-16T12:09:21;18.80;96.50
49579;DHT22;35483;50.828;3.228;2022-10-16T12:11:48;18.80;96.20
49579;DHT22;35483;50.828;3.228;2022-10-16T12:16:53;18.70;96.70
49579;DHT22;35483;50.828;3.228;2022-10-16T12:19:21;18.90;96.40
49579;DHT22;35483;50.828;3.228;2022-10-16T12:21:48;19.10;96.40
49579;DHT22;35483;50.828;3.228;2022-10-16T12:26:48;19.30;95.30
49579;DHT22;35483;50.828;3.228;2022-10-16T12:29:28;19.30;96.00
49579;DHT22;35483;50.828;3.228;2022-10-16T12:31:55;19.30;95.10
49579;DHT22;35483;50.828;3.228;2022-10-16T12:34:31;19.30;96.20
49579;DHT22;35483;50.828;3.228;2022-10-16T12:37:19;19.30;96.00
49579;DHT22;35483;50.828;3.228;2022-10-16T12:39:47;19.30;93.20
49579;DHT22;35483;50.828;3.228;2022-10-16T12:44:55;19.40;94.70
49579;DHT22;35483;50.828;3.228;2022-10-16T12:49:59;19.40;96.00
49579;DHT22;35483;50.828;3.228;2022-10-16T12:55:00;19.20;94.80
49579;DHT22;35483;50.828;3.228;2022-10-16T13:00:32;19.10;93.70
49579;DHT22;35483;50.828;3.228;2022-10-16T13:08:46;19.00;96.00
49579;DHT22;35483;50.828;3.228;2022-10-16T13:11:25;19.10;95.80
49579;DHT22;35483;50.828;3.228;2022-10-16T13:22:37;19.70;92.80
49579;DHT22;35483;50.828;3.228;2022-10-16T13:30:30;19.80;95.10
49579;DHT22;35483;50.828;3.228;2022-10-16T13:33:01;19.80;95.60
49579;DHT22;35483;50.828;3.228;2022-10-16T13:35:30;19.60;94.80
49579;DHT22;35483;50.828;3.228;2022-10-16T13:38:15;19.50;95.40
49579;DHT22;35483;50.828;3.228;2022-10-16T13:40:55;19.50;94.60
49579;DHT22;35483;50.828;3.228;2022-10-16T13:43:45;19.40;93.80
49579;DHT22;35483;50.828;3.228;2022-10-16T13:46:23;19.50;93.00
49579;DHT22;35483;50.828;3.228;2022-10-16T13:49:03;19.50;93.70
49579;DHT22;35483;50.828;3.228;2022-10-16T13:51:30;19.50;92.10
49579;DHT22;35483;50.828;3.228;2022-10-16T13:53:57;19.50;95.10
49579;DHT22;35483;50.828;3.228;2022-10-16T13:56:26;19.60;95.20
49579;DHT22;35483;50.828;3.228;2022-10-16T13:59:06;19.60;94.90
49579;DHT22;35483;50.828;3.228;2022-10-16T14:01:47;19.70;93.70
49579;DHT22;35483;50.828;3.228;2022-10-16T14:04:13;19.70;95.30
49579;DHT22;35483;50.828;3.228;2022-10-16T14:06:42;19.70;94.60
49579;DHT22;35483;50.828;3.228;2022-10-16T14:09:23;19.70;95.20
49579;DHT22;35483;50.828;3.228;2022-10-16T14:11:59;19.60;94.00
49579;DHT22;35483;50.828;3.228;2022-10-16T14:14:41;19.60;94.30
49579;DHT22;35483;50.828;3.228;2022-10-16T14:17:22;19.50;94.40
49579;DHT22;35483;50.828;3.228;2022-10-16T14:19:49;19.50;95.00
49579;DHT22;35483;50.828;3.228;2022-10-16T14:24:55;19.40;94.30
49579;DHT22;35483;50.828;3.228;2022-10-16T14:27:41;19.40;95.30
49579;DHT22;35483;50.828;3.228;2022-10-16T14:30:21;19.40;93.60
49579;DHT22;35483;50.828;3.228;2022-10-16T14:33:24;19.30;93.90
49579;DHT22;35483;50.828;3.228;2022-10-16T14:36:33;19.30;94.20
49579;DHT22;35483;50.828;3.228;2022-10-16T14:41:21;19.20;95.50
49579;DHT22;35483;50.828;3.228;2022-10-16T14:43:51;19.10;95.20
49579;DHT22;35483;50.828;3.228;2022-10-16T14:46:20;19.10;95.10
49579;DHT22;35483;50.828;3.228;2022-10-16T14:48:48;19.00;95.40
49579;DHT22;35483;50.828;3.228;2022-10-16T14:51:16;19.00;95.50
49579;DHT22;35483;50.828;3.228;2022-10-16T14:53:42;19.00;95.60
49579;DHT22;35483;50.828;3.228;2022-10-16T14:56:29;19.00;95.80
49579;DHT22;35483;50.828;3.228;2022-10-16T14:58:55;19.00;95.10
49579;DHT22;35483;50.828;3.228;2022-10-16T15:01:21;18.90;95.80
49579;DHT22;35483;50.828;3.228;2022-10-16T15:03:47;18.90;95.80
49579;DHT22;35483;50.828;3.228;2022-10-16T15:06:14;18.90;96.00
49579;DHT22;35483;50.828;3.228;2022-10-16T15:08:41;18.90;96.00
49579;DHT22;35483;50.828;3.228;2022-10-16T15:11:14;18.90;96.10
49579;DHT22;35483;50.828;3.228;2022-10-16T15:13:41;18.90;95.80
49579;DHT22;35483;50.828;3.228;2022-10-16T15:16:15;18.90;96.10
49579;DHT22;35483;50.828;3.228;2022-10-16T15:18:42;18.80;95.80
49579;DHT22;35483;50.828;3.228;2022-10-16T15:21:08;18.80;96.20
49579;DHT22;35483;50.828;3.228;2022-10-16T15:23:41;18.70;96.30
49579;DHT22;35483;50.828;3.228;2022-10-16T15:26:07;18.70;96.40
49579;DHT22;35483;50.828;3.228;2022-10-16T15:28:33;18.60;96.30
49579;DHT22;35483;50.828;3.228;2022-10-16T15:31:01;18.60;96.40
49579;DHT22;35483;50.828;3.228;2022-10-16T15:33:27;18.60;96.50
49579;DHT22;35483;50.828;3.228;2022-10-16T15:35:55;18.60;96.50
49579;DHT22;35483;50.828;3.228;2022-10-16T15:38:22;18.50;96.60
49579;DHT22;35483;50.828;3.228;2022-10-16T15:40:48;18.50;96.60
49579;DHT22;35483;50.828;3.228;2022-10-16T15:43:15;18.50;96.60
49579;DHT22;35483;50.828;3.228;2022-10-16T15:45:41;18.40;96.60
49579;DHT22;35483;50.828;3.228;2022-10-16T15:48:10;18.40;96.70
49579;DHT22;35483;50.828;3.228;2022-10-16T15:50:37;18.50;96.70
49579;DHT22;35483;50.828;3.228;2022-10-16T15:53:03;18.40;96.70
49579;DHT22;35483;50.828;3.228;2022-10-16T15:55:29;18.40;96.80
49579;DHT22;35483;50.828;3.228;2022-10-16T15:57:56;18.40;96.80
49579;DHT22;35483;50.828;3.228;2022-10-16T16:00:22;18.40;96.80
49579;DHT22;35483;50.828;3.228;2022-10-16T16:02:54;18.40;96.80
49579;DHT22;35483;50.828;3.228;2022-10-16T16:05:21;18.40;96.90
49579;DHT22;35483;50.828;3.228;2022-10-16T16:07:48;18.40;96.90
49579;DHT22;35483;50.828;3.228;2022-10-16T16:10:14;18.30;96.90
49579;DHT22;35483;50.828;3.228;2022-10-16T16:12:40;18.30;96.90
49579;DHT22;35483;50.828;3.228;2022-10-16T16:15:07;18.30;97.00
49579;DHT22;35483;50.828;3.228;2022-10-16T16:17:34;18.30;97.00
49579;DHT22;35483;50.828;3.228;2022-10-16T16:20:00;18.20;97.00
49579;DHT22;35483;50.828;3.228;2022-10-16T16:22:26;18.30;97.10
49579;DHT22;35483;50.828;3.228;2022-10-16T16:24:52;18.30;97.20
49579;DHT22;35483;50.828;3.228;2022-10-16T16:27:18;18.20;97.20
49579;DHT22;35483;50.828;3.228;2022-10-16T16:29:45;18.20;97.20
49579;DHT22;35483;50.828;3.228;2022-10-16T16:32:11;18.20;97.20
49579;DHT22;35483;50.828;3.228;2022-10-16T16:34:36;18.20;97.30
49579;DHT22;35483;50.828;3.228;2022-10-16T16:37:02;18.20;97.30
49579;DHT22;35483;50.828;3.228;2022-10-16T16:39:28;18.20;97.30
49579;DHT22;35483;50.828;3.228;2022-10-16T16:41:56;18.10;97.30
49579;DHT22;35483;50.828;3.228;2022-10-16T16:44:24;18.10;97.40
49579;DHT22;35483;50.828;3.228;2022-10-16T16:46:50;18.10;97.50
49579;DHT22;35483;50.828;3.228;2022-10-16T16:49:16;18.10;97.50
49579;DHT22;35483;50.828;3.228;2022-10-16T16:51:41;18.10;97.50
49579;DHT22;35483;50.828;3.228;2022-10-16T16:54:09;18.00;97.60
49579;DHT22;35483;50.828;3.228;2022-10-16T16:56:35;18.00;97.70
49579;DHT22;35483;50.828;3.228;2022-10-16T16:59:01;18.00;97.70
49579;DHT22;35483;50.828;3.228;2022-10-16T17:01:28;18.00;97.80
49579;DHT22;35483;50.828;3.228;2022-10-16T17:03:55;17.90;97.80
49579;DHT22;35483;50.828;3.228;2022-10-16T17:06:24;17.90;97.80
49579;DHT22;35483;50.828;3.228;2022-10-16T17:08:50;17.90;97.80
49579;DHT22;35483;50.828;3.228;2022-10-16T17:11:19;17.90;97.80
49579;DHT22;35483;50.828;3.228;2022-10-16T17:13:46;17.90;97.80
49579;DHT22;35483;50.828;3.228;2022-10-16T17:16:12;17.90;97.80
49579;DHT22;35483;50.828;3.228;2022-10-16T17:18:38;17.90;97.90
49579;DHT22;35483;50.828;3.228;2022-10-16T17:21:06;17.90;97.90
49579;DHT22;35483;50.828;3.228;2022-10-16T17:23:34;17.90;97.90
49579;DHT22;35483;50.828;3.228;2022-10-16T17:26:08;17.90;98.00
49579;DHT22;35483;50.828;3.228;2022-10-16T17:28:34;17.90;98.10
49579;DHT22;35483;50.828;3.228;2022-10-16T17:31:11;17.80;98.00
49579;DHT22;35483;50.828;3.228;2022-10-16T17:33:36;17.90;98.10